Lackland AFB, Texas
Current Conditions -  °F | °C
As of 1:33 PM on Thursday 18 Dec 2014 (Local Time) from KSKF Reporting Station
Broken Clouds Broken Clouds  
Wind Chill: 66°   Ceiling: 4800
Heat Index: 66°   Visibility: 10mi
Dew Point: 59°   Wind: 7mph
Humidity: 78%   Direction: 30°NNE
Pressure: 30.03"   Gusts: NA
Location:  29.3853°N, 98.6099°W
Report Text: KSKF 181933Z AUTO 03006KT 10SM FEW035 BKN048 19/15 A3003 RMK AO2 $
Loading
Personal Weather Stations






























Interactive Weather Map New forecast layout! Learn more

10-Day Weather Forecast

Advertisements
Track Severe Weather on mobile